createdAt,value
2023-02-22T00:05:14.546Z,12.13
2023-02-22T00:08:07.492Z,12.43
2023-02-22T00:13:45.197Z,14.90
2023-02-22T00:16:36.955Z,11.68
2023-02-22T00:19:30.635Z,13.25
2023-02-22T00:25:03.084Z,13.40
2023-02-22T00:27:57.240Z,12.18
2023-02-22T00:30:49.432Z,11.83
2023-02-22T00:33:42.995Z,9.95
2023-02-22T00:36:34.289Z,9.95
2023-02-22T00:39:25.674Z,10.30
2023-02-22T00:42:17.805Z,10.80
2023-02-22T00:45:10.137Z,10.43
2023-02-22T00:48:04.618Z,10.98
2023-02-22T00:50:56.175Z,11.23
2023-02-22T00:56:27.133Z,10.85
2023-02-22T01:01:58.805Z,10.98
2023-02-22T01:04:51.118Z,10.68
2023-02-22T01:07:43.301Z,10.48
2023-02-22T01:13:19.205Z,9.83
2023-02-22T01:16:10.743Z,10.58
2023-02-22T01:19:02.771Z,10.08
2023-02-22T01:21:54.855Z,10.95
2023-02-22T01:24:46.136Z,11.05
2023-02-22T01:27:38.559Z,11.05
2023-02-22T01:33:13.852Z,11.20
2023-02-22T01:36:06.892Z,12.78
2023-02-22T01:39:00.188Z,13.55
2023-02-22T01:41:53.885Z,12.37
2023-02-22T01:44:45.591Z,12.20
2023-02-22T01:47:37.155Z,12.68
2023-02-22T01:50:30.707Z,12.23
2023-02-22T01:53:25.091Z,12.13
2023-02-22T01:56:19.296Z,12.43
2023-02-22T02:01:50.942Z,12.18
2023-02-22T02:04:43.672Z,13.32
2023-02-22T02:10:18.268Z,13.00
2023-02-22T02:13:10.350Z,14.18
2023-02-22T02:16:03.284Z,13.75
2023-02-22T02:21:48.126Z,13.55
2023-02-22T02:28:39.143Z,14.90
2023-02-22T02:34:26.642Z,14.25
2023-02-22T02:37:22.121Z,13.93
2023-02-22T02:43:17.874Z,14.87
2023-02-22T02:51:38.794Z,14.80
2023-02-22T02:54:30.779Z,17.25
2023-02-22T02:57:22.756Z,15.85
2023-02-22T03:03:08.759Z,21.40
2023-02-22T03:06:29.518Z,19.40
2023-02-22T03:09:28.574Z,18.77
2023-02-22T03:15:10.365Z,18.50
2023-02-22T03:20:50.495Z,18.50
2023-02-22T03:26:29.854Z,18.25
2023-02-22T03:29:24.748Z,17.90
2023-02-22T03:32:20.204Z,17.30
2023-02-22T03:35:14.637Z,16.90
2023-02-22T03:40:55.376Z,17.17
2023-02-22T03:46:32.021Z,18.02
2023-02-22T03:49:39.649Z,16.23
2023-02-22T03:52:30.079Z,16.67
2023-02-22T03:55:21.420Z,7.12
2023-02-22T03:58:15.421Z,6.12
2023-02-22T04:01:08.538Z,5.70
2023-02-22T04:04:00.496Z,5.47
2023-02-22T04:06:51.949Z,7.25
2023-02-22T04:12:23.980Z,7.08
2023-02-22T04:15:18.494Z,6.75
2023-02-22T04:18:10.078Z,7.05
2023-02-22T04:21:01.370Z,7.75
2023-02-22T04:26:33.494Z,8.30
2023-02-22T04:29:26.384Z,8.80
2023-02-22T04:32:18.321Z,9.70
2023-02-22T04:37:48.785Z,11.28
2023-02-22T04:40:41.418Z,10.55
2023-02-22T04:46:16.948Z,10.35
2023-02-22T04:51:53.064Z,10.18
2023-02-22T04:57:40.455Z,10.85
2023-02-22T05:00:31.919Z,10.50
2023-02-22T05:03:24.641Z,10.15
2023-02-22T05:06:17.908Z,10.55
2023-02-22T05:12:00.845Z,10.70
2023-02-22T05:14:49.105Z,10.55
2023-02-22T05:17:40.380Z,9.80
2023-02-22T05:20:34.085Z,10.03
2023-02-22T05:26:06.632Z,10.50
2023-02-22T05:28:57.875Z,10.40
2023-02-22T05:34:31.110Z,11.10
2023-02-22T05:37:22.683Z,10.23
2023-02-22T05:43:01.105Z,11.35
2023-02-22T05:45:52.514Z,11.38
2023-02-22T05:51:25.119Z,10.88
2023-02-22T05:56:57.905Z,8.98
2023-02-22T06:02:31.572Z,9.80
2023-02-22T06:05:23.224Z,9.40
2023-02-22T06:11:02.753Z,9.60
2023-02-22T06:13:55.009Z,8.55
2023-02-22T06:16:46.450Z,9.90
2023-02-22T06:19:38.102Z,10.35
2023-02-22T06:22:30.259Z,12.10
2023-02-22T06:25:24.372Z,13.05
2023-02-22T06:30:54.108Z,13.68
2023-02-22T06:33:45.832Z,13.78
2023-02-22T06:36:37.097Z,13.85
2023-02-22T06:42:33.270Z,16.73
2023-02-22T06:45:27.355Z,14.18
2023-02-22T06:48:19.054Z,14.38
2023-02-22T06:51:11.570Z,14.53
2023-02-22T06:56:46.112Z,13.95
2023-02-22T06:59:37.651Z,13.13
2023-02-22T07:02:28.874Z,13.90
2023-02-22T07:05:22.581Z,13.60
2023-02-22T07:08:14.787Z,12.88
2023-02-22T07:11:06.852Z,13.35
2023-02-22T07:13:58.224Z,13.85
2023-02-22T07:16:49.494Z,13.30
2023-02-22T07:22:19.316Z,13.58
2023-02-22T07:25:12.433Z,13.08
2023-02-22T07:30:44.743Z,13.38
2023-02-22T07:36:16.079Z,13.62
2023-02-22T07:39:09.005Z,14.78
2023-02-22T07:42:00.780Z,13.80
2023-02-22T07:47:33.468Z,13.62
2023-02-22T07:50:25.959Z,14.15
2023-02-22T07:53:20.040Z,14.07
2023-02-22T07:56:11.239Z,14.00
2023-02-22T08:01:50.442Z,14.10
2023-02-22T08:04:41.445Z,13.75
2023-02-22T08:10:16.531Z,14.00
2023-02-22T08:13:08.253Z,15.25
2023-02-22T08:18:41.281Z,14.23
2023-02-22T08:21:32.527Z,13.95
2023-02-22T08:24:23.913Z,15.35
2023-02-22T08:27:15.072Z,14.20
2023-02-22T08:30:07.929Z,14.85
2023-02-22T08:32:59.485Z,14.10
2023-02-22T08:35:52.058Z,14.47
2023-02-22T08:41:21.528Z,14.47
2023-02-22T08:46:51.732Z,15.53
2023-02-22T08:49:43.050Z,14.78
2023-02-22T08:52:35.346Z,14.18
2023-02-22T08:55:33.126Z,15.60
2023-02-22T08:58:24.962Z,15.40
2023-02-22T09:01:22.022Z,15.40
2023-02-22T09:06:49.927Z,16.27
2023-02-22T09:09:41.381Z,15.75
2023-02-22T09:12:33.515Z,15.48
2023-02-22T09:15:26.727Z,16.05
2023-02-22T09:18:19.351Z,15.55
2023-02-22T09:21:10.512Z,14.43
2023-02-22T09:26:42.757Z,15.03
2023-02-22T09:29:33.779Z,15.40
2023-02-22T09:32:27.559Z,14.75
2023-02-22T09:35:19.435Z,16.20
2023-02-22T09:38:11.698Z,15.53
2023-02-22T09:43:51.583Z,18.35
2023-02-22T09:46:45.509Z,16.23
2023-02-22T09:52:20.027Z,16.35
2023-02-22T09:55:15.790Z,15.18
2023-02-22T09:58:09.847Z,16.42
2023-02-22T10:03:43.766Z,16.97
2023-02-22T10:06:37.218Z,16.23
2023-02-22T10:09:30.553Z,16.05
2023-02-22T10:12:31.567Z,15.55
2023-02-22T10:15:37.301Z,16.20
2023-02-22T10:21:19.722Z,19.42
2023-02-22T10:24:16.333Z,17.37
2023-02-22T10:27:10.393Z,16.65
2023-02-22T10:30:22.176Z,16.87
2023-02-22T10:33:02.437Z,17.12
2023-02-22T10:35:55.354Z,17.65
2023-02-22T10:38:50.568Z,17.37
2023-02-22T10:44:24.254Z,17.12
2023-02-22T10:47:19.545Z,16.50
2023-02-22T10:50:15.661Z,17.12
2023-02-22T10:53:06.967Z,16.62
2023-02-22T10:56:19.223Z,15.68
2023-02-22T11:01:50.613Z,16.90
2023-02-22T11:04:50.828Z,16.67
2023-02-22T11:07:42.837Z,17.25
2023-02-22T11:10:36.244Z,16.50
2023-02-22T11:13:29.655Z,16.35
2023-02-22T11:16:23.790Z,17.10
2023-02-22T11:19:26.376Z,16.30
2023-02-22T11:22:26.060Z,17.45
2023-02-22T11:28:15.381Z,16.80
2023-02-22T11:31:17.688Z,17.57
2023-02-22T11:34:10.864Z,18.05
2023-02-22T11:37:17.678Z,16.93
2023-02-22T11:40:19.876Z,17.77
2023-02-22T11:43:13.657Z,19.00
2023-02-22T11:46:08.810Z,18.25
2023-02-22T11:49:05.117Z,17.37
2023-02-22T11:52:09.468Z,19.17
2023-02-22T11:55:10.867Z,19.02
2023-02-22T12:00:53.541Z,18.02
2023-02-22T12:04:29.079Z,18.17
2023-02-22T12:07:31.049Z,17.40
2023-02-22T12:10:28.955Z,18.02
2023-02-22T12:13:30.094Z,17.35
2023-02-22T12:16:27.615Z,17.48
2023-02-22T12:19:24.616Z,18.45
2023-02-22T12:22:19.038Z,18.80
2023-02-22T12:25:16.125Z,19.25
2023-02-22T12:28:23.663Z,18.57
2023-02-22T12:31:15.573Z,17.57
2023-02-22T12:34:11.954Z,18.07
2023-02-22T12:37:07.928Z,18.52
2023-02-22T12:40:06.502Z,18.15
2023-02-22T12:45:50.485Z,18.67
2023-02-22T12:48:47.568Z,17.40
2023-02-22T12:51:42.610Z,16.60
2023-02-22T12:54:42.066Z,16.93
2023-02-22T12:57:39.308Z,16.15
2023-02-22T13:00:34.031Z,15.72
2023-02-22T13:03:32.956Z,15.30
2023-02-22T13:06:32.337Z,15.80
2023-02-22T13:09:37.549Z,15.55
2023-02-22T13:12:32.883Z,14.78
2023-02-22T13:15:27.614Z,14.68
2023-02-22T13:18:22.801Z,15.10
2023-02-22T13:23:59.428Z,15.93
2023-02-22T13:26:53.517Z,16.07
2023-02-22T13:29:47.559Z,17.00
2023-02-22T13:32:47.317Z,17.48
2023-02-22T13:35:53.567Z,16.23
2023-02-22T13:42:20.224Z,16.42
2023-02-22T13:45:43.308Z,17.27
2023-02-22T13:48:43.651Z,18.73
2023-02-22T13:51:45.141Z,18.80
2023-02-22T13:54:41.049Z,18.25
2023-02-22T13:57:35.651Z,17.65
2023-02-22T14:00:44.721Z,18.55
2023-02-22T14:03:41.515Z,18.65
2023-02-22T14:06:41.700Z,18.70
2023-02-22T14:09:48.346Z,18.73
2023-02-22T14:12:52.236Z,18.05
2023-02-22T14:16:23.315Z,18.95
2023-02-22T14:19:23.091Z,19.12
2023-02-22T14:22:14.844Z,18.95
2023-02-22T14:25:07.747Z,19.12
2023-02-22T14:28:01.403Z,19.62
2023-02-22T14:30:53.887Z,19.25
2023-02-22T14:34:00.120Z,18.42
2023-02-22T14:39:40.733Z,18.52
2023-02-22T14:42:35.530Z,18.17
2023-02-22T14:45:30.175Z,18.73
2023-02-22T14:48:25.982Z,18.32
2023-02-22T14:51:22.771Z,18.25
2023-02-22T14:54:16.477Z,18.60
2023-02-22T14:57:14.998Z,18.77
2023-02-22T15:00:20.962Z,18.60
2023-02-22T15:03:24.094Z,18.77
2023-02-22T15:06:19.017Z,20.60
2023-02-22T15:09:16.372Z,20.30
2023-02-22T15:12:20.090Z,20.50
2023-02-22T15:15:20.380Z,20.52
2023-02-22T15:18:19.299Z,22.30
2023-02-22T15:21:14.867Z,20.72
2023-02-22T15:24:09.167Z,20.80
2023-02-22T15:29:46.690Z,24.67
2023-02-22T15:32:53.196Z,22.73
2023-02-22T15:35:34.822Z,20.97
2023-02-22T15:38:31.401Z,21.48
2023-02-22T15:41:30.223Z,21.37
2023-02-22T15:44:23.891Z,22.02
2023-02-22T15:47:18.752Z,21.15
2023-02-22T15:50:25.796Z,20.12
2023-02-22T15:53:28.220Z,21.50
2023-02-22T15:56:22.630Z,20.62
2023-02-22T15:59:18.166Z,22.07
2023-02-22T16:02:12.781Z,20.95
2023-02-22T16:05:07.117Z,21.23
2023-02-22T16:07:59.443Z,20.35
2023-02-22T16:10:56.400Z,21.95
2023-02-22T16:13:54.072Z,20.00
2023-02-22T16:16:45.683Z,21.00
2023-02-22T16:19:42.621Z,19.55
2023-02-22T16:22:35.895Z,20.25
2023-02-22T16:25:31.151Z,20.32
2023-02-22T16:28:33.453Z,19.62
2023-02-22T16:31:27.501Z,19.52
2023-02-22T16:34:20.025Z,20.23
2023-02-22T16:37:23.860Z,21.50
2023-02-22T16:40:22.596Z,20.23
2023-02-22T16:43:18.652Z,19.07
2023-02-22T16:46:10.383Z,18.35
2023-02-22T16:51:46.317Z,19.40
2023-02-22T16:54:40.596Z,19.70
2023-02-22T17:00:19.412Z,21.48
2023-02-22T17:03:13.941Z,20.35
2023-02-22T17:06:06.147Z,19.73
2023-02-22T17:08:57.543Z,19.30
2023-02-22T17:11:51.940Z,20.15
2023-02-22T17:14:44.649Z,21.40
2023-02-22T17:17:36.346Z,20.12
2023-02-22T17:20:30.918Z,21.00
2023-02-22T17:23:22.908Z,20.02
2023-02-22T17:26:15.261Z,20.52
2023-02-22T17:29:07.059Z,21.20
2023-02-22T17:31:58.618Z,20.43
2023-02-22T17:34:50.708Z,20.50
2023-02-22T17:37:42.008Z,20.55
2023-02-22T17:40:33.218Z,21.55
2023-02-22T17:43:25.257Z,20.75
2023-02-22T17:46:17.077Z,20.88
2023-02-22T17:49:09.032Z,21.73
2023-02-22T17:52:02.261Z,21.70
2023-02-22T17:54:53.768Z,21.70
2023-02-22T17:57:45.623Z,21.75
2023-02-22T18:00:39.313Z,21.60
2023-02-22T18:03:30.993Z,21.42
2023-02-22T18:06:25.293Z,21.37
2023-02-22T18:09:18.004Z,20.52
2023-02-22T18:12:09.562Z,20.55
2023-02-22T18:15:01.174Z,20.77
2023-02-22T18:17:53.611Z,20.60
2023-02-22T18:20:46.560Z,16.12
2023-02-22T18:23:38.075Z,17.12
2023-02-22T18:26:29.882Z,15.83
2023-02-22T18:29:21.299Z,18.15
2023-02-22T18:32:13.795Z,17.67
2023-02-22T18:35:08.319Z,19.07
2023-02-22T18:37:59.482Z,17.70
2023-02-22T18:40:51.511Z,17.57
2023-02-22T18:46:23.452Z,17.70
2023-02-22T18:49:15.384Z,17.02
2023-02-22T18:52:06.832Z,18.70
2023-02-22T18:54:57.875Z,19.15
2023-02-22T18:57:51.072Z,17.85
2023-02-22T19:00:45.229Z,19.30
2023-02-22T19:03:39.748Z,18.75
2023-02-22T19:06:31.473Z,18.12
2023-02-22T19:09:23.444Z,16.70
2023-02-22T19:12:16.066Z,16.48
2023-02-22T19:15:08.922Z,16.73
2023-02-22T19:18:00.444Z,16.32
2023-02-22T19:20:59.056Z,17.10
2023-02-22T19:23:50.710Z,17.12
2023-02-22T19:26:44.941Z,16.97
2023-02-22T19:35:19.942Z,17.07
2023-02-22T19:38:11.193Z,20.30
2023-02-22T19:41:12.604Z,21.20
2023-02-22T19:44:04.527Z,21.52
2023-02-22T19:46:56.340Z,22.58
2023-02-22T19:52:39.285Z,22.32
2023-02-22T19:58:09.191Z,23.42
2023-02-22T20:01:00.720Z,23.52
2023-02-22T20:03:54.574Z,24.32
2023-02-22T20:09:40.806Z,24.32
2023-02-22T20:12:32.520Z,23.80
2023-02-22T20:15:24.381Z,24.18
2023-02-22T20:18:15.838Z,24.98
2023-02-22T20:21:11.170Z,24.72
2023-02-22T20:24:04.876Z,25.88
2023-02-22T20:26:58.517Z,24.90
2023-02-22T20:29:50.441Z,25.70
2023-02-22T20:48:30.146Z,24.05
2023-02-22T20:51:23.020Z,24.67
2023-02-22T20:54:14.880Z,24.72
2023-02-22T20:59:49.853Z,23.02
2023-02-22T21:02:41.796Z,24.23
2023-02-22T21:05:33.570Z,24.77
2023-02-22T21:08:25.458Z,23.50
2023-02-22T21:11:19.907Z,24.52
2023-02-22T21:14:14.731Z,24.10
2023-02-22T21:17:07.909Z,24.20
2023-02-22T21:19:59.855Z,24.10
2023-02-22T21:25:33.655Z,24.75
2023-02-22T21:28:29.768Z,23.98
2023-02-22T21:31:19.190Z,22.98
2023-02-22T21:34:16.357Z,23.40
2023-02-22T21:37:08.542Z,22.60
2023-02-22T21:40:00.360Z,22.82
2023-02-22T21:42:52.481Z,22.50
2023-02-22T21:48:26.867Z,22.58
2023-02-22T21:51:20.444Z,22.82
2023-02-22T21:54:13.890Z,23.38
2023-02-22T21:57:06.711Z,22.10
2023-02-22T21:59:58.135Z,22.82
2023-02-22T22:02:52.358Z,22.32
2023-02-22T22:05:46.295Z,21.82
2023-02-22T22:08:40.113Z,22.75
2023-02-22T22:11:31.563Z,22.30
2023-02-22T22:14:24.657Z,21.45
2023-02-22T22:17:16.101Z,21.02
2023-02-22T22:20:11.379Z,22.67
2023-02-22T22:23:03.422Z,22.17
2023-02-22T22:25:56.098Z,22.10
2023-02-22T22:28:49.009Z,22.75
2023-02-22T22:31:40.749Z,22.17
2023-02-22T22:37:16.252Z,22.45
2023-02-22T22:40:11.752Z,21.97
2023-02-22T22:43:02.864Z,21.70
2023-02-22T22:48:38.357Z,21.50
2023-02-22T22:54:38.948Z,20.48
2023-02-22T22:57:34.053Z,21.10
2023-02-22T23:00:29.392Z,21.25
2023-02-22T23:03:22.211Z,20.00
2023-02-22T23:06:14.212Z,20.65
2023-02-22T23:09:11.762Z,20.80
2023-02-22T23:12:09.333Z,20.77
2023-02-22T23:15:02.283Z,20.90
2023-02-22T23:17:59.306Z,19.57
2023-02-22T23:20:55.026Z,20.65
2023-02-22T23:23:47.619Z,19.23
2023-02-22T23:26:38.830Z,19.62
2023-02-22T23:32:10.618Z,18.82
2023-02-22T23:38:00.599Z,18.27
2023-02-22T23:43:38.908Z,26.40
2023-02-22T23:46:33.175Z,22.55
2023-02-22T23:52:06.135Z,22.20
2023-02-22T23:54:57.491Z,22.05
2023-02-22T23:57:49.274Z,22.30
